Terminal Aerodrome Forecast
Issued by NWS Northern Indiana

Home | Current Version | Previous Version | Text Only | Print | Product List | Glossary On
Versions: 1 2 3 4 5 6 7 8 9 10 11 12 13 14 15 16
000
FTUS43 KIWX 270800 AAA
TAFFWA
TAF AMD
KFWA 270827Z 2708/2806 05004KT P6SM SKC
     FM271000 07002KT 2SM BR FEW005
      TEMPO 2710/2713 3/4SM BR BKN002
     FM271400 08008KT P6SM BKN250=

USA.gov is the U.S. government's official web portal to all federal, state and local government web resources and services.